sensor_id;sensor_type;location;lat;lon;timestamp;P1;durP1;ratioP1;P2;durP2;ratioP2
17251;SDS011;8742;51.716;8.790;2023-07-20T00:00:31;7.80;;;4.27;;
17251;SDS011;8742;51.716;8.790;2023-07-20T00:03:09;11.70;;;4.53;;
17251;SDS011;8742;51.716;8.790;2023-07-20T00:05:37;9.00;;;5.10;;
17251;SDS011;8742;51.716;8.790;2023-07-20T00:08:04;11.27;;;5.43;;
17251;SDS011;8742;51.716;8.790;2023-07-20T00:10:31;29.00;;;7.03;;
17251;SDS011;8742;51.716;8.790;2023-07-20T00:12:58;34.00;;;8.40;;
17251;SDS011;8742;51.716;8.790;2023-07-20T00:15:25;11.83;;;5.07;;
17251;SDS011;8742;51.716;8.790;2023-07-20T00:17:53;22.07;;;6.73;;
17251;SDS011;8742;51.716;8.790;2023-07-20T00:20:21;46.70;;;7.70;;
17251;SDS011;8742;51.716;8.790;2023-07-20T00:22:52;13.10;;;5.80;;
17251;SDS011;8742;51.716;8.790;2023-07-20T00:25:20;15.60;;;8.00;;
17251;SDS011;8742;51.716;8.790;2023-07-20T00:27:47;23.10;;;11.40;;
17251;SDS011;8742;51.716;8.790;2023-07-20T00:30:13;17.10;;;10.63;;
17251;SDS011;8742;51.716;8.790;2023-07-20T00:32:41;16.33;;;11.20;;
17251;SDS011;8742;51.716;8.790;2023-07-20T00:35:09;19.13;;;10.87;;
17251;SDS011;8742;51.716;8.790;2023-07-20T00:37:36;18.20;;;11.53;;
17251;SDS011;8742;51.716;8.790;2023-07-20T00:40:05;14.57;;;9.47;;
17251;SDS011;8742;51.716;8.790;2023-07-20T00:42:33;15.43;;;10.23;;
17251;SDS011;8742;51.716;8.790;2023-07-20T00:45:00;19.93;;;10.33;;
17251;SDS011;8742;51.716;8.790;2023-07-20T00:47:29;16.60;;;10.37;;
17251;SDS011;8742;51.716;8.790;2023-07-20T00:49:58;13.80;;;10.33;;
17251;SDS011;8742;51.716;8.790;2023-07-20T00:52:26;14.43;;;10.33;;
17251;SDS011;8742;51.716;8.790;2023-07-20T00:54:54;18.53;;;12.43;;
17251;SDS011;8742;51.716;8.790;2023-07-20T00:57:22;17.03;;;12.57;;
17251;SDS011;8742;51.716;8.790;2023-07-20T00:59:50;18.43;;;12.37;;
17251;SDS011;8742;51.716;8.790;2023-07-20T01:02:18;19.03;;;12.53;;
17251;SDS011;8742;51.716;8.790;2023-07-20T01:04:44;15.90;;;12.03;;
17251;SDS011;8742;51.716;8.790;2023-07-20T01:07:12;22.40;;;13.80;;
17251;SDS011;8742;51.716;8.790;2023-07-20T01:09:48;20.00;;;13.87;;
17251;SDS011;8742;51.716;8.790;2023-07-20T01:12:25;21.73;;;14.33;;
17251;SDS011;8742;51.716;8.790;2023-07-20T01:14:56;20.33;;;14.93;;
17251;SDS011;8742;51.716;8.790;2023-07-20T01:17:23;21.00;;;14.70;;
17251;SDS011;8742;51.716;8.790;2023-07-20T01:19:50;25.13;;;15.73;;
17251;SDS011;8742;51.716;8.790;2023-07-20T01:22:21;23.67;;;15.87;;
17251;SDS011;8742;51.716;8.790;2023-07-20T01:25:08;26.40;;;18.27;;
17251;SDS011;8742;51.716;8.790;2023-07-20T01:30:46;28.50;;;15.80;;
17251;SDS011;8742;51.716;8.790;2023-07-20T01:33:23;24.90;;;15.20;;
17251;SDS011;8742;51.716;8.790;2023-07-20T01:35:52;20.37;;;15.07;;
17251;SDS011;8742;51.716;8.790;2023-07-20T01:38:21;28.57;;;14.80;;
17251;SDS011;8742;51.716;8.790;2023-07-20T01:40:48;21.33;;;15.97;;
17251;SDS011;8742;51.716;8.790;2023-07-20T01:43:16;24.77;;;16.37;;
17251;SDS011;8742;51.716;8.790;2023-07-20T01:45:42;24.53;;;17.50;;
17251;SDS011;8742;51.716;8.790;2023-07-20T01:48:11;25.33;;;17.33;;
17251;SDS011;8742;51.716;8.790;2023-07-20T01:50:39;30.73;;;19.60;;
17251;SDS011;8742;51.716;8.790;2023-07-20T01:53:06;33.93;;;20.17;;
17251;SDS011;8742;51.716;8.790;2023-07-20T01:55:33;28.57;;;19.50;;
17251;SDS011;8742;51.716;8.790;2023-07-20T01:58:00;28.53;;;20.37;;
17251;SDS011;8742;51.716;8.790;2023-07-20T02:00:27;32.77;;;21.67;;
17251;SDS011;8742;51.716;8.790;2023-07-20T02:02:53;30.00;;;20.17;;
17251;SDS011;8742;51.716;8.790;2023-07-20T02:05:20;39.27;;;21.20;;
17251;SDS011;8742;51.716;8.790;2023-07-20T02:07:48;31.60;;;20.07;;
17251;SDS011;8742;51.716;8.790;2023-07-20T02:10:15;29.47;;;18.87;;
17251;SDS011;8742;51.716;8.790;2023-07-20T02:12:42;27.73;;;18.57;;
17251;SDS011;8742;51.716;8.790;2023-07-20T02:15:09;28.37;;;19.30;;
17251;SDS011;8742;51.716;8.790;2023-07-20T02:17:38;28.10;;;19.33;;
17251;SDS011;8742;51.716;8.790;2023-07-20T02:20:06;32.67;;;18.90;;
17251;SDS011;8742;51.716;8.790;2023-07-20T02:22:35;29.50;;;20.40;;
17251;SDS011;8742;51.716;8.790;2023-07-20T02:25:04;32.57;;;20.73;;
17251;SDS011;8742;51.716;8.790;2023-07-20T02:27:32;31.57;;;19.53;;
17251;SDS011;8742;51.716;8.790;2023-07-20T02:29:59;35.10;;;21.00;;
17251;SDS011;8742;51.716;8.790;2023-07-20T02:32:25;35.43;;;21.10;;
17251;SDS011;8742;51.716;8.790;2023-07-20T02:34:52;32.07;;;21.30;;
17251;SDS011;8742;51.716;8.790;2023-07-20T02:37:19;38.47;;;21.90;;
17251;SDS011;8742;51.716;8.790;2023-07-20T02:39:46;33.83;;;21.90;;
17251;SDS011;8742;51.716;8.790;2023-07-20T02:42:14;34.57;;;22.10;;
17251;SDS011;8742;51.716;8.790;2023-07-20T02:44:41;39.27;;;23.07;;
17251;SDS011;8742;51.716;8.790;2023-07-20T02:47:08;42.33;;;25.23;;
17251;SDS011;8742;51.716;8.790;2023-07-20T02:49:34;45.00;;;26.80;;
17251;SDS011;8742;51.716;8.790;2023-07-20T02:52:01;38.00;;;26.67;;
17251;SDS011;8742;51.716;8.790;2023-07-20T02:54:28;53.07;;;27.03;;
17251;SDS011;8742;51.716;8.790;2023-07-20T02:56:56;50.30;;;26.77;;
17251;SDS011;8742;51.716;8.790;2023-07-20T02:59:24;50.70;;;27.70;;
17251;SDS011;8742;51.716;8.790;2023-07-20T03:01:51;46.40;;;28.03;;
17251;SDS011;8742;51.716;8.790;2023-07-20T03:04:19;43.43;;;28.70;;
17251;SDS011;8742;51.716;8.790;2023-07-20T03:06:46;50.53;;;30.50;;
17251;SDS011;8742;51.716;8.790;2023-07-20T03:09:13;46.80;;;30.00;;
17251;SDS011;8742;51.716;8.790;2023-07-20T03:11:40;48.30;;;30.67;;
17251;SDS011;8742;51.716;8.790;2023-07-20T03:14:07;58.40;;;31.33;;
17251;SDS011;8742;51.716;8.790;2023-07-20T03:16:37;57.53;;;32.20;;
17251;SDS011;8742;51.716;8.790;2023-07-20T03:19:04;53.83;;;34.13;;
17251;SDS011;8742;51.716;8.790;2023-07-20T03:21:30;62.03;;;35.90;;
17251;SDS011;8742;51.716;8.790;2023-07-20T03:23:57;61.27;;;33.90;;
17251;SDS011;8742;51.716;8.790;2023-07-20T03:26:24;57.13;;;35.00;;
17251;SDS011;8742;51.716;8.790;2023-07-20T03:28:51;58.30;;;34.67;;
17251;SDS011;8742;51.716;8.790;2023-07-20T03:31:18;53.80;;;33.43;;
17251;SDS011;8742;51.716;8.790;2023-07-20T03:33:46;58.10;;;35.27;;
17251;SDS011;8742;51.716;8.790;2023-07-20T03:36:13;60.20;;;36.87;;
17251;SDS011;8742;51.716;8.790;2023-07-20T03:38:39;57.57;;;37.00;;
17251;SDS011;8742;51.716;8.790;2023-07-20T03:41:06;73.87;;;39.90;;
17251;SDS011;8742;51.716;8.790;2023-07-20T03:43:34;68.20;;;38.60;;
17251;SDS011;8742;51.716;8.790;2023-07-20T03:46:01;62.53;;;38.80;;
17251;SDS011;8742;51.716;8.790;2023-07-20T03:48:31;68.93;;;39.87;;
17251;SDS011;8742;51.716;8.790;2023-07-20T03:50:59;67.37;;;39.70;;
17251;SDS011;8742;51.716;8.790;2023-07-20T03:53:26;72.83;;;37.87;;
17251;SDS011;8742;51.716;8.790;2023-07-20T03:55:53;68.63;;;38.27;;
17251;SDS011;8742;51.716;8.790;2023-07-20T03:58:21;65.87;;;38.60;;
17251;SDS011;8742;51.716;8.790;2023-07-20T04:00:48;60.23;;;37.20;;
17251;SDS011;8742;51.716;8.790;2023-07-20T04:03:16;62.97;;;38.30;;
17251;SDS011;8742;51.716;8.790;2023-07-20T04:05:43;63.13;;;38.73;;
17251;SDS011;8742;51.716;8.790;2023-07-20T04:08:12;64.93;;;35.80;;
17251;SDS011;8742;51.716;8.790;2023-07-20T04:10:39;60.40;;;35.43;;
17251;SDS011;8742;51.716;8.790;2023-07-20T04:13:09;63.00;;;36.00;;
17251;SDS011;8742;51.716;8.790;2023-07-20T04:15:36;66.37;;;38.00;;
17251;SDS011;8742;51.716;8.790;2023-07-20T04:18:03;62.37;;;35.90;;
17251;SDS011;8742;51.716;8.790;2023-07-20T04:20:29;94.17;;;40.50;;
17251;SDS011;8742;51.716;8.790;2023-07-20T04:22:56;117.63;;;46.50;;
17251;SDS011;8742;51.716;8.790;2023-07-20T04:25:24;112.60;;;43.20;;
17251;SDS011;8742;51.716;8.790;2023-07-20T04:27:51;112.57;;;39.03;;
17251;SDS011;8742;51.716;8.790;2023-07-20T04:30:18;35.83;;;22.03;;
17251;SDS011;8742;51.716;8.790;2023-07-20T04:32:47;28.43;;;16.13;;
17251;SDS011;8742;51.716;8.790;2023-07-20T04:35:16;26.37;;;15.10;;
17251;SDS011;8742;51.716;8.790;2023-07-20T04:37:44;29.67;;;16.53;;
17251;SDS011;8742;51.716;8.790;2023-07-20T04:40:12;22.20;;;15.93;;
17251;SDS011;8742;51.716;8.790;2023-07-20T04:42:41;23.93;;;16.60;;
17251;SDS011;8742;51.716;8.790;2023-07-20T04:45:08;32.97;;;18.30;;
17251;SDS011;8742;51.716;8.790;2023-07-20T04:47:35;41.80;;;20.73;;
17251;SDS011;8742;51.716;8.790;2023-07-20T04:50:02;30.10;;;20.30;;
17251;SDS011;8742;51.716;8.790;2023-07-20T04:55:15;38.80;;;24.83;;
17251;SDS011;8742;51.716;8.790;2023-07-20T04:57:44;43.17;;;26.67;;
17251;SDS011;8742;51.716;8.790;2023-07-20T05:00:11;52.63;;;31.13;;
17251;SDS011;8742;51.716;8.790;2023-07-20T05:03:12;48.37;;;28.93;;
17251;SDS011;8742;51.716;8.790;2023-07-20T05:05:41;41.97;;;28.20;;
17251;SDS011;8742;51.716;8.790;2023-07-20T05:08:21;43.97;;;26.50;;
17251;SDS011;8742;51.716;8.790;2023-07-20T05:11:09;42.90;;;24.57;;
17251;SDS011;8742;51.716;8.790;2023-07-20T05:13:59;45.33;;;25.07;;
17251;SDS011;8742;51.716;8.790;2023-07-20T05:16:42;36.57;;;23.90;;
17251;SDS011;8742;51.716;8.790;2023-07-20T05:19:09;34.73;;;22.67;;
17251;SDS011;8742;51.716;8.790;2023-07-20T05:21:41;31.13;;;20.17;;
17251;SDS011;8742;51.716;8.790;2023-07-20T05:24:18;33.27;;;21.83;;
17251;SDS011;8742;51.716;8.790;2023-07-20T05:26:47;31.37;;;21.00;;
17251;SDS011;8742;51.716;8.790;2023-07-20T05:32:16;33.53;;;18.43;;
17251;SDS011;8742;51.716;8.790;2023-07-20T05:34:43;31.17;;;19.60;;
17251;SDS011;8742;51.716;8.790;2023-07-20T05:37:10;34.10;;;20.37;;
17251;SDS011;8742;51.716;8.790;2023-07-20T05:39:38;32.17;;;21.20;;
17251;SDS011;8742;51.716;8.790;2023-07-20T05:42:19;32.30;;;21.73;;
17251;SDS011;8742;51.716;8.790;2023-07-20T05:45:00;35.93;;;22.53;;
17251;SDS011;8742;51.716;8.790;2023-07-20T05:47:47;36.43;;;21.33;;
17251;SDS011;8742;51.716;8.790;2023-07-20T05:50:26;26.67;;;15.03;;
17251;SDS011;8742;51.716;8.790;2023-07-20T05:52:54;11.40;;;6.80;;
17251;SDS011;8742;51.716;8.790;2023-07-20T05:55:25;8.57;;;5.40;;
17251;SDS011;8742;51.716;8.790;2023-07-20T05:58:03;7.73;;;4.63;;
17251;SDS011;8742;51.716;8.790;2023-07-20T06:00:36;7.07;;;4.20;;
17251;SDS011;8742;51.716;8.790;2023-07-20T06:03:19;6.67;;;4.23;;
17251;SDS011;8742;51.716;8.790;2023-07-20T06:05:57;5.00;;;3.87;;
17251;SDS011;8742;51.716;8.790;2023-07-20T06:08:33;4.97;;;4.47;;
17251;SDS011;8742;51.716;8.790;2023-07-20T06:11:17;4.40;;;4.00;;
17251;SDS011;8742;51.716;8.790;2023-07-20T06:13:47;6.23;;;4.67;;
17251;SDS011;8742;51.716;8.790;2023-07-20T06:16:25;6.37;;;5.33;;
17251;SDS011;8742;51.716;8.790;2023-07-20T06:18:56;9.30;;;5.50;;
17251;SDS011;8742;51.716;8.790;2023-07-20T06:21:37;8.27;;;5.73;;
17251;SDS011;8742;51.716;8.790;2023-07-20T06:24:26;6.43;;;5.20;;
17251;SDS011;8742;51.716;8.790;2023-07-20T06:29:45;9.40;;;5.93;;
17251;SDS011;8742;51.716;8.790;2023-07-20T06:32:14;8.37;;;5.60;;
17251;SDS011;8742;51.716;8.790;2023-07-20T06:34:43;8.87;;;5.50;;
17251;SDS011;8742;51.716;8.790;2023-07-20T06:37:29;7.93;;;5.70;;
17251;SDS011;8742;51.716;8.790;2023-07-20T06:39:56;8.00;;;6.10;;
17251;SDS011;8742;51.716;8.790;2023-07-20T06:42:23;5.83;;;5.10;;
17251;SDS011;8742;51.716;8.790;2023-07-20T06:44:50;8.13;;;6.87;;
17251;SDS011;8742;51.716;8.790;2023-07-20T06:47:18;6.60;;;5.57;;
17251;SDS011;8742;51.716;8.790;2023-07-20T06:49:45;8.90;;;6.17;;
17251;SDS011;8742;51.716;8.790;2023-07-20T06:52:21;7.23;;;5.73;;
17251;SDS011;8742;51.716;8.790;2023-07-20T06:54:47;5.33;;;4.77;;
17251;SDS011;8742;51.716;8.790;2023-07-20T06:57:14;5.87;;;4.57;;
17251;SDS011;8742;51.716;8.790;2023-07-20T06:59:55;6.17;;;3.87;;
17251;SDS011;8742;51.716;8.790;2023-07-20T07:02:24;5.10;;;3.60;;
17251;SDS011;8742;51.716;8.790;2023-07-20T07:04:51;4.77;;;3.67;;
17251;SDS011;8742;51.716;8.790;2023-07-20T07:07:18;4.43;;;3.40;;
17251;SDS011;8742;51.716;8.790;2023-07-20T07:09:45;2.90;;;2.70;;
17251;SDS011;8742;51.716;8.790;2023-07-20T07:12:12;3.50;;;3.20;;
17251;SDS011;8742;51.716;8.790;2023-07-20T07:14:39;4.27;;;3.47;;
17251;SDS011;8742;51.716;8.790;2023-07-20T07:17:06;5.10;;;3.40;;
17251;SDS011;8742;51.716;8.790;2023-07-20T07:19:34;3.37;;;2.90;;
17251;SDS011;8742;51.716;8.790;2023-07-20T07:22:10;2.60;;;2.40;;
17251;SDS011;8742;51.716;8.790;2023-07-20T07:24:38;5.30;;;2.77;;
17251;SDS011;8742;51.716;8.790;2023-07-20T07:27:16;3.40;;;2.80;;
17251;SDS011;8742;51.716;8.790;2023-07-20T07:29:43;4.03;;;2.50;;
17251;SDS011;8742;51.716;8.790;2023-07-20T07:32:14;4.70;;;2.83;;
17251;SDS011;8742;51.716;8.790;2023-07-20T07:34:43;3.30;;;3.00;;
17251;SDS011;8742;51.716;8.790;2023-07-20T07:37:11;3.07;;;2.73;;
17251;SDS011;8742;51.716;8.790;2023-07-20T07:39:41;4.13;;;2.73;;
17251;SDS011;8742;51.716;8.790;2023-07-20T07:42:08;3.90;;;2.93;;
17251;SDS011;8742;51.716;8.790;2023-07-20T07:44:34;2.90;;;2.67;;
17251;SDS011;8742;51.716;8.790;2023-07-20T07:47:01;4.83;;;2.97;;
17251;SDS011;8742;51.716;8.790;2023-07-20T07:49:28;2.80;;;2.60;;
17251;SDS011;8742;51.716;8.790;2023-07-20T07:51:57;5.90;;;3.33;;
17251;SDS011;8742;51.716;8.790;2023-07-20T07:54:28;2.43;;;2.30;;
17251;SDS011;8742;51.716;8.790;2023-07-20T07:56:54;4.10;;;2.37;;
17251;SDS011;8742;51.716;8.790;2023-07-20T07:59:22;2.10;;;2.00;;
17251;SDS011;8742;51.716;8.790;2023-07-20T08:01:49;3.10;;;1.80;;
17251;SDS011;8742;51.716;8.790;2023-07-20T08:04:16;2.03;;;1.93;;
17251;SDS011;8742;51.716;8.790;2023-07-20T08:06:42;5.50;;;1.63;;
17251;SDS011;8742;51.716;8.790;2023-07-20T08:09:10;2.33;;;1.67;;
17251;SDS011;8742;51.716;8.790;2023-07-20T08:11:38;5.40;;;1.27;;
17251;SDS011;8742;51.716;8.790;2023-07-20T08:14:05;2.27;;;1.33;;
17251;SDS011;8742;51.716;8.790;2023-07-20T08:16:32;1.00;;;0.90;;
17251;SDS011;8742;51.716;8.790;2023-07-20T08:18:59;4.50;;;1.07;;
17251;SDS011;8742;51.716;8.790;2023-07-20T08:21:27;2.83;;;1.07;;
17251;SDS011;8742;51.716;8.790;2023-07-20T08:23:54;1.10;;;1.00;;
17251;SDS011;8742;51.716;8.790;2023-07-20T08:26:22;1.23;;;0.87;;
17251;SDS011;8742;51.716;8.790;2023-07-20T08:28:49;1.47;;;1.03;;
17251;SDS011;8742;51.716;8.790;2023-07-20T08:31:16;1.60;;;1.20;;
17251;SDS011;8742;51.716;8.790;2023-07-20T08:33:43;1.40;;;0.97;;
17251;SDS011;8742;51.716;8.790;2023-07-20T08:36:10;2.77;;;1.27;;
17251;SDS011;8742;51.716;8.790;2023-07-20T08:38:37;1.47;;;0.80;;
17251;SDS011;8742;51.716;8.790;2023-07-20T08:41:03;1.97;;;1.00;;
17251;SDS011;8742;51.716;8.790;2023-07-20T08:43:31;1.90;;;0.80;;
17251;SDS011;8742;51.716;8.790;2023-07-20T08:45:59;2.93;;;0.97;;
17251;SDS011;8742;51.716;8.790;2023-07-20T08:48:28;1.90;;;0.90;;
17251;SDS011;8742;51.716;8.790;2023-07-20T08:50:56;3.35;;;1.13;;
17251;SDS011;8742;51.716;8.790;2023-07-20T08:53:25;1.40;;;0.90;;
17251;SDS011;8742;51.716;8.790;2023-07-20T08:55:53;0.80;;;0.80;;
17251;SDS011;8742;51.716;8.790;2023-07-20T08:58:21;1.33;;;0.82;;
17251;SDS011;8742;51.716;8.790;2023-07-20T09:00:52;1.70;;;0.80;;
17251;SDS011;8742;51.716;8.790;2023-07-20T09:03:20;1.02;;;0.63;;
17251;SDS011;8742;51.716;8.790;2023-07-20T09:05:47;0.90;;;0.70;;
17251;SDS011;8742;51.716;8.790;2023-07-20T09:08:15;2.45;;;0.85;;
17251;SDS011;8742;51.716;8.790;2023-07-20T09:10:41;1.75;;;0.75;;
17251;SDS011;8742;51.716;8.790;2023-07-20T09:13:08;0.73;;;0.73;;
17251;SDS011;8742;51.716;8.790;2023-07-20T09:15:35;0.52;;;0.50;;
17251;SDS011;8742;51.716;8.790;2023-07-20T09:18:03;1.70;;;0.82;;
17251;SDS011;8742;51.716;8.790;2023-07-20T09:20:32;0.65;;;0.65;;
17251;SDS011;8742;51.716;8.790;2023-07-20T09:22:59;0.88;;;0.70;;
17251;SDS011;8742;51.716;8.790;2023-07-20T09:25:30;1.00;;;0.60;;
17251;SDS011;8742;51.716;8.790;2023-07-20T09:27:59;1.63;;;0.88;;
17251;SDS011;8742;51.716;8.790;2023-07-20T09:30:29;1.35;;;0.90;;
17251;SDS011;8742;51.716;8.790;2023-07-20T09:32:55;1.20;;;0.85;;
17251;SDS011;8742;51.716;8.790;2023-07-20T09:35:24;0.68;;;0.68;;
17251;SDS011;8742;51.716;8.790;2023-07-20T09:37:52;2.80;;;0.70;;
17251;SDS011;8742;51.716;8.790;2023-07-20T09:40:20;3.10;;;0.93;;
17251;SDS011;8742;51.716;8.790;2023-07-20T09:42:47;1.52;;;1.38;;
17251;SDS011;8742;51.716;8.790;2023-07-20T09:45:17;1.35;;;0.77;;
17251;SDS011;8742;51.716;8.790;2023-07-20T09:47:44;1.27;;;0.60;;
17251;SDS011;8742;51.716;8.790;2023-07-20T09:50:11;1.50;;;0.60;;
17251;SDS011;8742;51.716;8.790;2023-07-20T09:52:40;2.45;;;1.00;;
17251;SDS011;8742;51.716;8.790;2023-07-20T09:55:09;2.10;;;0.73;;
17251;SDS011;8742;51.716;8.790;2023-07-20T09:57:37;1.50;;;0.80;;
17251;SDS011;8742;51.716;8.790;2023-07-20T10:00:06;4.38;;;1.08;;
17251;SDS011;8742;51.716;8.790;2023-07-20T10:02:40;1.23;;;0.75;;
17251;SDS011;8742;51.716;8.790;2023-07-20T10:05:09;0.55;;;0.52;;
17251;SDS011;8742;51.716;8.790;2023-07-20T10:07:40;0.57;;;0.57;;
17251;SDS011;8742;51.716;8.790;2023-07-20T10:10:10;1.48;;;0.80;;
17251;SDS011;8742;51.716;8.790;2023-07-20T10:12:39;0.70;;;0.70;;
17251;SDS011;8742;51.716;8.790;2023-07-20T10:15:11;0.65;;;0.50;;
17251;SDS011;8742;51.716;8.790;2023-07-20T10:17:44;0.93;;;0.88;;
17251;SDS011;8742;51.716;8.790;2023-07-20T10:20:19;3.28;;;0.80;;
17251;SDS011;8742;51.716;8.790;2023-07-20T10:22:49;2.67;;;0.73;;
17251;SDS011;8742;51.716;8.790;2023-07-20T10:25:19;1.15;;;0.70;;
17251;SDS011;8742;51.716;8.790;2023-07-20T10:27:48;2.45;;;0.80;;
17251;SDS011;8742;51.716;8.790;2023-07-20T10:30:15;2.15;;;0.68;;
17251;SDS011;8742;51.716;8.790;2023-07-20T10:32:43;0.70;;;0.70;;
17251;SDS011;8742;51.716;8.790;2023-07-20T10:35:11;0.73;;;0.73;;
17251;SDS011;8742;51.716;8.790;2023-07-20T10:37:45;3.90;;;0.85;;
17251;SDS011;8742;51.716;8.790;2023-07-20T10:40:28;1.00;;;0.80;;
17251;SDS011;8742;51.716;8.790;2023-07-20T10:42:57;0.70;;;0.70;;
17251;SDS011;8742;51.716;8.790;2023-07-20T10:45:35;0.98;;;0.77;;
17251;SDS011;8742;51.716;8.790;2023-07-20T10:48:15;1.20;;;0.80;;
17251;SDS011;8742;51.716;8.790;2023-07-20T10:50:45;2.05;;;0.85;;
17251;SDS011;8742;51.716;8.790;2023-07-20T10:53:33;0.52;;;0.52;;
17251;SDS011;8742;51.716;8.790;2023-07-20T10:56:07;4.50;;;0.80;;
17251;SDS011;8742;51.716;8.790;2023-07-20T10:58:37;1.50;;;0.77;;
17251;SDS011;8742;51.716;8.790;2023-07-20T11:01:04;1.52;;;0.95;;
17251;SDS011;8742;51.716;8.790;2023-07-20T11:03:40;1.38;;;0.65;;
17251;SDS011;8742;51.716;8.790;2023-07-20T11:09:04;1.60;;;0.80;;
17251;SDS011;8742;51.716;8.790;2023-07-20T11:11:33;1.40;;;0.88;;
17251;SDS011;8742;51.716;8.790;2023-07-20T11:14:01;1.23;;;0.75;;
17251;SDS011;8742;51.716;8.790;2023-07-20T11:16:35;0.88;;;0.88;;
17251;SDS011;8742;51.716;8.790;2023-07-20T11:19:06;1.80;;;0.80;;
17251;SDS011;8742;51.716;8.790;2023-07-20T11:21:40;1.02;;;0.90;;
17251;SDS011;8742;51.716;8.790;2023-07-20T11:24:10;1.52;;;0.93;;
17251;SDS011;8742;51.716;8.790;2023-07-20T11:26:45;1.20;;;0.60;;
17251;SDS011;8742;51.716;8.790;2023-07-20T11:29:13;1.50;;;1.08;;
17251;SDS011;8742;51.716;8.790;2023-07-20T11:31:42;1.95;;;0.80;;
17251;SDS011;8742;51.716;8.790;2023-07-20T11:34:10;2.60;;;0.80;;
17251;SDS011;8742;51.716;8.790;2023-07-20T11:36:39;1.05;;;0.52;;
17251;SDS011;8742;51.716;8.790;2023-07-20T11:39:10;1.25;;;0.70;;
17251;SDS011;8742;51.716;8.790;2023-07-20T11:41:43;1.45;;;0.82;;
17251;SDS011;8742;51.716;8.790;2023-07-20T11:44:12;1.10;;;0.70;;
17251;SDS011;8742;51.716;8.790;2023-07-20T11:46:41;2.38;;;0.75;;
17251;SDS011;8742;51.716;8.790;2023-07-20T11:49:09;1.20;;;0.70;;
17251;SDS011;8742;51.716;8.790;2023-07-20T11:51:36;1.20;;;0.60;;
17251;SDS011;8742;51.716;8.790;2023-07-20T11:54:08;4.30;;;0.70;;
17251;SDS011;8742;51.716;8.790;2023-07-20T11:56:36;1.48;;;0.65;;
17251;SDS011;8742;51.716;8.790;2023-07-20T11:59:09;1.00;;;0.75;;
17251;SDS011;8742;51.716;8.790;2023-07-20T12:01:35;1.40;;;0.77;;
17251;SDS011;8742;51.716;8.790;2023-07-20T12:04:03;0.90;;;0.70;;
17251;SDS011;8742;51.716;8.790;2023-07-20T12:06:31;0.70;;;0.57;;
17251;SDS011;8742;51.716;8.790;2023-07-20T12:08:58;0.60;;;0.60;;
17251;SDS011;8742;51.716;8.790;2023-07-20T12:11:33;0.70;;;0.70;;
17251;SDS011;8742;51.716;8.790;2023-07-20T12:14:01;0.40;;;0.40;;
17251;SDS011;8742;51.716;8.790;2023-07-20T12:16:28;0.90;;;0.90;;
17251;SDS011;8742;51.716;8.790;2023-07-20T12:18:59;0.98;;;0.68;;
17251;SDS011;8742;51.716;8.790;2023-07-20T12:21:27;2.97;;;0.98;;
17251;SDS011;8742;51.716;8.790;2023-07-20T12:23:55;0.40;;;0.40;;
17251;SDS011;8742;51.716;8.790;2023-07-20T12:26:22;1.45;;;0.80;;
17251;SDS011;8742;51.716;8.790;2023-07-20T12:28:51;1.05;;;0.88;;
17251;SDS011;8742;51.716;8.790;2023-07-20T12:31:18;1.35;;;0.70;;
17251;SDS011;8742;51.716;8.790;2023-07-20T12:33:46;4.47;;;0.77;;
17251;SDS011;8742;51.716;8.790;2023-07-20T12:36:13;2.10;;;0.70;;
17251;SDS011;8742;51.716;8.790;2023-07-20T12:38:40;0.70;;;0.70;;
17251;SDS011;8742;51.716;8.790;2023-07-20T12:41:09;0.63;;;0.63;;
17251;SDS011;8742;51.716;8.790;2023-07-20T12:43:38;1.45;;;0.70;;
17251;SDS011;8742;51.716;8.790;2023-07-20T12:46:06;0.90;;;0.90;;
17251;SDS011;8742;51.716;8.790;2023-07-20T12:48:33;0.73;;;0.70;;
17251;SDS011;8742;51.716;8.790;2023-07-20T12:51:02;1.08;;;0.70;;
17251;SDS011;8742;51.716;8.790;2023-07-20T12:53:29;0.98;;;0.90;;
17251;SDS011;8742;51.716;8.790;2023-07-20T12:55:56;0.82;;;0.82;;
17251;SDS011;8742;51.716;8.790;2023-07-20T12:58:23;0.82;;;0.80;;
17251;SDS011;8742;51.716;8.790;2023-07-20T13:00:50;0.88;;;0.88;;
17251;SDS011;8742;51.716;8.790;2023-07-20T13:03:18;0.80;;;0.80;;
17251;SDS011;8742;51.716;8.790;2023-07-20T13:05:45;1.08;;;1.08;;
17251;SDS011;8742;51.716;8.790;2023-07-20T13:08:13;2.30;;;0.90;;
17251;SDS011;8742;51.716;8.790;2023-07-20T13:10:40;1.35;;;0.95;;
17251;SDS011;8742;51.716;8.790;2023-07-20T13:13:07;0.85;;;0.85;;
17251;SDS011;8742;51.716;8.790;2023-07-20T13:15:40;3.15;;;1.00;;
17251;SDS011;8742;51.716;8.790;2023-07-20T13:18:08;2.00;;;0.90;;
17251;SDS011;8742;51.716;8.790;2023-07-20T13:20:36;1.88;;;0.90;;
17251;SDS011;8742;51.716;8.790;2023-07-20T13:23:03;0.88;;;0.88;;
17251;SDS011;8742;51.716;8.790;2023-07-20T13:25:30;1.20;;;1.10;;
17251;SDS011;8742;51.716;8.790;2023-07-20T13:28:00;1.45;;;1.33;;
17251;SDS011;8742;51.716;8.790;2023-07-20T13:30:27;2.55;;;1.42;;
17251;SDS011;8742;51.716;8.790;2023-07-20T13:32:54;1.50;;;1.40;;
17251;SDS011;8742;51.716;8.790;2023-07-20T13:35:23;1.50;;;1.40;;
17251;SDS011;8742;51.716;8.790;2023-07-20T13:37:52;1.30;;;1.30;;
17251;SDS011;8742;51.716;8.790;2023-07-20T13:40:18;1.48;;;1.20;;
17251;SDS011;8742;51.716;8.790;2023-07-20T13:42:47;1.75;;;1.65;;
17251;SDS011;8742;51.716;8.790;2023-07-20T13:45:14;1.63;;;1.25;;
17251;SDS011;8742;51.716;8.790;2023-07-20T13:47:41;1.52;;;1.20;;
17251;SDS011;8742;51.716;8.790;2023-07-20T13:50:08;0.80;;;0.80;;
17251;SDS011;8742;51.716;8.790;2023-07-20T13:52:35;0.93;;;0.93;;
17251;SDS011;8742;51.716;8.790;2023-07-20T13:55:04;1.17;;;1.02;;
17251;SDS011;8742;51.716;8.790;2023-07-20T13:57:31;0.98;;;0.75;;
17251;SDS011;8742;51.716;8.790;2023-07-20T13:59:58;1.35;;;0.80;;
17251;SDS011;8742;51.716;8.790;2023-07-20T14:02:27;1.70;;;0.85;;
17251;SDS011;8742;51.716;8.790;2023-07-20T14:04:53;1.02;;;0.93;;
17251;SDS011;8742;51.716;8.790;2023-07-20T14:07:21;0.68;;;0.68;;
17251;SDS011;8742;51.716;8.790;2023-07-20T14:09:48;1.80;;;1.00;;
17251;SDS011;8742;51.716;8.790;2023-07-20T14:12:16;1.17;;;0.70;;
17251;SDS011;8742;51.716;8.790;2023-07-20T14:14:43;0.80;;;0.80;;
17251;SDS011;8742;51.716;8.790;2023-07-20T14:17:10;3.20;;;0.93;;
17251;SDS011;8742;51.716;8.790;2023-07-20T14:19:37;0.60;;;0.60;;
17251;SDS011;8742;51.716;8.790;2023-07-20T14:22:05;1.33;;;0.65;;
17251;SDS011;8742;51.716;8.790;2023-07-20T14:24:35;0.80;;;0.80;;
17251;SDS011;8742;51.716;8.790;2023-07-20T14:27:02;1.42;;;0.90;;
17251;SDS011;8742;51.716;8.790;2023-07-20T14:29:31;1.15;;;0.82;;
17251;SDS011;8742;51.716;8.790;2023-07-20T14:32:01;1.50;;;0.70;;
17251;SDS011;8742;51.716;8.790;2023-07-20T14:34:29;1.00;;;0.60;;
17251;SDS011;8742;51.716;8.790;2023-07-20T14:36:58;2.40;;;0.55;;
17251;SDS011;8742;51.716;8.790;2023-07-20T14:39:25;1.38;;;0.90;;
17251;SDS011;8742;51.716;8.790;2023-07-20T14:41:52;0.65;;;0.63;;
17251;SDS011;8742;51.716;8.790;2023-07-20T14:44:19;0.73;;;0.45;;
17251;SDS011;8742;51.716;8.790;2023-07-20T14:46:47;0.75;;;0.68;;
17251;SDS011;8742;51.716;8.790;2023-07-20T14:49:14;0.50;;;0.50;;
17251;SDS011;8742;51.716;8.790;2023-07-20T14:51:42;2.05;;;0.50;;
17251;SDS011;8742;51.716;8.790;2023-07-20T14:54:11;0.28;;;0.28;;
17251;SDS011;8742;51.716;8.790;2023-07-20T14:56:39;0.63;;;0.50;;
17251;SDS011;8742;51.716;8.790;2023-07-20T14:59:06;0.30;;;0.20;;
17251;SDS011;8742;51.716;8.790;2023-07-20T15:01:32;0.50;;;0.40;;
17251;SDS011;8742;51.716;8.790;2023-07-20T15:04:01;0.22;;;0.22;;
17251;SDS011;8742;51.716;8.790;2023-07-20T15:06:28;0.70;;;0.55;;
17251;SDS011;8742;51.716;8.790;2023-07-20T15:08:55;0.50;;;0.50;;
17251;SDS011;8742;51.716;8.790;2023-07-20T15:11:22;1.08;;;0.60;;
17251;SDS011;8742;51.716;8.790;2023-07-20T15:13:49;0.43;;;0.43;;
17251;SDS011;8742;51.716;8.790;2023-07-20T15:16:16;0.50;;;0.50;;